sensor_id;sensor_type;location;lat;lon;timestamp;pressure;altitude;pressure_sealevel;temperature;humidity
26697;BME280;14312;52.614;13.496;2023-03-19T00:01:52;100706.25;;;12.27;52.03
26697;BME280;14312;52.614;13.496;2023-03-19T00:04:38;100712.06;;;12.24;52.21
26697;BME280;14312;52.614;13.496;2023-03-19T00:07:24;100705.63;;;12.20;52.22
26697;BME280;14312;52.614;13.496;2023-03-19T00:10:10;100715.50;;;12.19;52.06
26697;BME280;14312;52.614;13.496;2023-03-19T00:12:56;100712.50;;;12.15;52.28
26697;BME280;14312;52.614;13.496;2023-03-19T00:15:42;100706.63;;;12.13;52.29
26697;BME280;14312;52.614;13.496;2023-03-19T00:18:28;100711.41;;;12.11;52.14
26697;BME280;14312;52.614;13.496;2023-03-19T00:21:15;100714.81;;;12.07;52.32
26697;BME280;14312;52.614;13.496;2023-03-19T00:24:01;100714.50;;;12.03;52.01
26697;BME280;14312;52.614;13.496;2023-03-19T00:26:47;100713.38;;;11.99;52.66
26697;BME280;14312;52.614;13.496;2023-03-19T00:29:33;100711.19;;;11.96;52.49
26697;BME280;14312;52.614;13.496;2023-03-19T00:32:19;100708.22;;;11.93;52.44
26697;BME280;14312;52.614;13.496;2023-03-19T00:35:06;100712.75;;;11.92;52.43
26697;BME280;14312;52.614;13.496;2023-03-19T00:37:53;100707.88;;;11.89;52.50
26697;BME280;14312;52.614;13.496;2023-03-19T00:40:39;100697.72;;;11.86;52.64
26697;BME280;14312;52.614;13.496;2023-03-19T00:43:25;100705.16;;;11.84;52.61
26697;BME280;14312;52.614;13.496;2023-03-19T00:46:12;100711.56;;;11.83;52.75
26697;BME280;14312;52.614;13.496;2023-03-19T00:48:59;100717.38;;;11.80;52.53
26697;BME280;14312;52.614;13.496;2023-03-19T00:51:45;100716.00;;;11.77;52.66
26697;BME280;14312;52.614;13.496;2023-03-19T00:54:31;100715.69;;;11.74;52.63
26697;BME280;14312;52.614;13.496;2023-03-19T00:57:17;100710.00;;;11.70;52.59
26697;BME280;14312;52.614;13.496;2023-03-19T01:00:04;100704.34;;;11.67;52.72
26697;BME280;14312;52.614;13.496;2023-03-19T01:02:50;100711.00;;;11.64;52.53
26697;BME280;14312;52.614;13.496;2023-03-19T01:05:36;100710.66;;;11.61;52.62
26697;BME280;14312;52.614;13.496;2023-03-19T01:08:22;100710.59;;;11.56;52.59
26697;BME280;14312;52.614;13.496;2023-03-19T01:11:11;100716.41;;;11.53;52.81
26697;BME280;14312;52.614;13.496;2023-03-19T01:13:57;100720.63;;;11.49;52.69
26697;BME280;14312;52.614;13.496;2023-03-19T01:16:44;100725.38;;;11.47;52.61
26697;BME280;14312;52.614;13.496;2023-03-19T01:19:30;100727.19;;;11.41;52.69
26697;BME280;14312;52.614;13.496;2023-03-19T01:22:16;100725.25;;;11.36;52.89
26697;BME280;14312;52.614;13.496;2023-03-19T01:25:03;100731.06;;;11.33;52.75
26697;BME280;14312;52.614;13.496;2023-03-19T01:27:51;100729.13;;;11.29;52.59
26697;BME280;14312;52.614;13.496;2023-03-19T01:30:37;100732.50;;;11.24;52.78
26697;BME280;14312;52.614;13.496;2023-03-19T01:33:25;100729.75;;;11.19;52.78
26697;BME280;14312;52.614;13.496;2023-03-19T01:36:11;100724.88;;;11.16;52.97
26697;BME280;14312;52.614;13.496;2023-03-19T01:38:57;100729.69;;;11.14;52.89
26697;BME280;14312;52.614;13.496;2023-03-19T01:41:44;100730.38;;;11.10;53.31
26697;BME280;14312;52.614;13.496;2023-03-19T01:44:32;100733.84;;;11.10;52.90
26697;BME280;14312;52.614;13.496;2023-03-19T01:47:27;100738.66;;;11.08;53.58
26697;BME280;14312;52.614;13.496;2023-03-19T01:50:35;100740.72;;;11.06;53.94
26697;BME280;14312;52.614;13.496;2023-03-19T01:53:26;100742.81;;;11.04;52.97
26697;BME280;14312;52.614;13.496;2023-03-19T01:56:20;100738.75;;;11.02;53.47
26697;BME280;14312;52.614;13.496;2023-03-19T01:59:14;100736.38;;;11.00;53.72
26697;BME280;14312;52.614;13.496;2023-03-19T02:02:17;100729.41;;;10.99;53.85
26697;BME280;14312;52.614;13.496;2023-03-19T02:05:12;100734.75;;;10.99;53.73
26697;BME280;14312;52.614;13.496;2023-03-19T02:08:02;100730.22;;;10.99;53.42
26697;BME280;14312;52.614;13.496;2023-03-19T02:10:51;100740.88;;;10.99;53.31
26697;BME280;14312;52.614;13.496;2023-03-19T02:13:40;100733.13;;;10.98;53.06
26697;BME280;14312;52.614;13.496;2023-03-19T02:16:26;100720.84;;;10.97;53.12
26697;BME280;14312;52.614;13.496;2023-03-19T02:19:16;100721.66;;;10.97;53.68
26697;BME280;14312;52.614;13.496;2023-03-19T02:22:06;100714.38;;;10.93;52.90
26697;BME280;14312;52.614;13.496;2023-03-19T02:25:32;100717.50;;;10.90;53.32
26697;BME280;14312;52.614;13.496;2023-03-19T02:28:11;100719.06;;;10.86;52.83
26697;BME280;14312;52.614;13.496;2023-03-19T02:30:57;100718.94;;;10.81;53.02
26697;BME280;14312;52.614;13.496;2023-03-19T02:33:44;100717.22;;;10.75;53.24
26697;BME280;14312;52.614;13.496;2023-03-19T02:36:46;100715.59;;;10.74;53.88
26697;BME280;14312;52.614;13.496;2023-03-19T02:39:39;100723.53;;;10.69;53.54
26697;BME280;14312;52.614;13.496;2023-03-19T02:42:28;100719.47;;;10.66;53.27
26697;BME280;14312;52.614;13.496;2023-03-19T02:45:15;100718.09;;;10.64;53.38
26697;BME280;14312;52.614;13.496;2023-03-19T02:48:01;100722.84;;;10.62;53.29
26697;BME280;14312;52.614;13.496;2023-03-19T02:50:47;100712.69;;;10.58;53.40
26697;BME280;14312;52.614;13.496;2023-03-19T02:53:33;100718.00;;;10.58;53.73
26697;BME280;14312;52.614;13.496;2023-03-19T02:56:19;100725.19;;;10.58;53.55
26697;BME280;14312;52.614;13.496;2023-03-19T02:59:05;100721.72;;;10.57;53.58
26697;BME280;14312;52.614;13.496;2023-03-19T03:01:52;100724.38;;;10.57;53.57
26697;BME280;14312;52.614;13.496;2023-03-19T03:04:38;100716.38;;;10.57;53.98
26697;BME280;14312;52.614;13.496;2023-03-19T03:07:23;100717.53;;;10.62;53.71
26697;BME280;14312;52.614;13.496;2023-03-19T03:10:10;100718.09;;;10.64;53.80
26697;BME280;14312;52.614;13.496;2023-03-19T03:12:57;100717.06;;;10.65;53.87
26697;BME280;14312;52.614;13.496;2023-03-19T03:15:44;100708.03;;;10.66;53.62
26697;BME280;14312;52.614;13.496;2023-03-19T03:18:29;100714.13;;;10.66;53.60
26697;BME280;14312;52.614;13.496;2023-03-19T03:21:16;100708.03;;;10.66;53.71
26697;BME280;14312;52.614;13.496;2023-03-19T03:24:05;100706.94;;;10.67;53.71
26697;BME280;14312;52.614;13.496;2023-03-19T03:26:51;100709.63;;;10.67;53.77
26697;BME280;14312;52.614;13.496;2023-03-19T03:29:36;100717.38;;;10.68;53.64
26697;BME280;14312;52.614;13.496;2023-03-19T03:32:23;100707.53;;;10.69;53.79
26697;BME280;14312;52.614;13.496;2023-03-19T03:35:09;100710.78;;;10.71;54.10
26697;BME280;14312;52.614;13.496;2023-03-19T03:37:55;100711.59;;;10.71;54.02
26697;BME280;14312;52.614;13.496;2023-03-19T03:40:41;100710.28;;;10.74;54.13
26697;BME280;14312;52.614;13.496;2023-03-19T03:43:27;100713.53;;;10.76;54.05
26697;BME280;14312;52.614;13.496;2023-03-19T03:46:13;100719.19;;;10.79;54.10
26697;BME280;14312;52.614;13.496;2023-03-19T03:48:59;100733.06;;;10.81;53.93
26697;BME280;14312;52.614;13.496;2023-03-19T03:51:45;100766.69;;;10.82;53.93
26697;BME280;14312;52.614;13.496;2023-03-19T03:54:31;100770.38;;;10.81;54.01
26697;BME280;14312;52.614;13.496;2023-03-19T03:57:17;100758.91;;;10.81;53.88
26697;BME280;14312;52.614;13.496;2023-03-19T04:00:03;100758.38;;;10.79;53.84
26697;BME280;14312;52.614;13.496;2023-03-19T04:02:50;100760.00;;;10.80;53.98
26697;BME280;14312;52.614;13.496;2023-03-19T04:05:36;100760.53;;;10.82;53.81
26697;BME280;14312;52.614;13.496;2023-03-19T04:08:23;100765.63;;;10.83;54.28
26697;BME280;14312;52.614;13.496;2023-03-19T04:11:09;100753.44;;;10.87;54.23
26697;BME280;14312;52.614;13.496;2023-03-19T04:13:55;100756.69;;;10.89;53.93
26697;BME280;14312;52.614;13.496;2023-03-19T04:16:42;100758.66;;;10.94;53.71
26697;BME280;14312;52.614;13.496;2023-03-19T04:19:28;100757.34;;;10.96;53.84
26697;BME280;14312;52.614;13.496;2023-03-19T04:22:14;100762.44;;;10.98;53.44
26697;BME280;14312;52.614;13.496;2023-03-19T04:25:00;100768.81;;;10.97;53.65
26697;BME280;14312;52.614;13.496;2023-03-19T04:27:46;100765.13;;;10.98;53.90
26697;BME280;14312;52.614;13.496;2023-03-19T04:30:32;100772.06;;;10.99;53.93
26697;BME280;14312;52.614;13.496;2023-03-19T04:33:18;100778.22;;;10.99;53.88
26697;BME280;14312;52.614;13.496;2023-03-19T04:36:05;100770.75;;;11.02;53.86
26697;BME280;14312;52.614;13.496;2023-03-19T04:38:51;100787.09;;;11.05;53.87
26697;BME280;14312;52.614;13.496;2023-03-19T04:41:38;100772.72;;;11.06;53.70
26697;BME280;14312;52.614;13.496;2023-03-19T04:44:24;100786.66;;;11.08;53.80
26697;BME280;14312;52.614;13.496;2023-03-19T04:47:10;100788.81;;;11.11;53.77
26697;BME280;14312;52.614;13.496;2023-03-19T04:49:56;100798.44;;;11.12;53.85
26697;BME280;14312;52.614;13.496;2023-03-19T04:52:42;100805.41;;;11.13;53.78
26697;BME280;14312;52.614;13.496;2023-03-19T04:55:28;100799.81;;;11.15;54.00
26697;BME280;14312;52.614;13.496;2023-03-19T04:58:14;100798.75;;;11.16;53.81
26697;BME280;14312;52.614;13.496;2023-03-19T05:01:00;100792.16;;;11.18;53.74
26697;BME280;14312;52.614;13.496;2023-03-19T05:03:46;100797.25;;;11.20;53.93
26697;BME280;14312;52.614;13.496;2023-03-19T05:06:32;100790.88;;;11.21;53.97
26697;BME280;14312;52.614;13.496;2023-03-19T05:09:18;100799.69;;;11.21;53.99
26697;BME280;14312;52.614;13.496;2023-03-19T05:12:05;100802.34;;;11.21;53.86
26697;BME280;14312;52.614;13.496;2023-03-19T05:14:51;100798.88;;;11.21;54.19
26697;BME280;14312;52.614;13.496;2023-03-19T05:17:37;100809.03;;;11.24;54.01
26697;BME280;14312;52.614;13.496;2023-03-19T05:20:23;100805.91;;;11.27;54.17
26697;BME280;14312;52.614;13.496;2023-03-19T05:23:10;100798.13;;;11.25;54.06
26697;BME280;14312;52.614;13.496;2023-03-19T05:25:58;100812.72;;;11.34;54.43
26697;BME280;14312;52.614;13.496;2023-03-19T05:28:45;100806.88;;;11.37;54.18
26697;BME280;14312;52.614;13.496;2023-03-19T05:31:31;100808.84;;;11.42;54.20
26697;BME280;14312;52.614;13.496;2023-03-19T05:34:17;100814.50;;;11.46;54.24
26697;BME280;14312;52.614;13.496;2023-03-19T05:37:03;100807.63;;;11.50;54.17
26697;BME280;14312;52.614;13.496;2023-03-19T05:39:50;100811.44;;;11.54;54.35
26697;BME280;14312;52.614;13.496;2023-03-19T05:42:36;100818.38;;;11.55;54.52
26697;BME280;14312;52.614;13.496;2023-03-19T05:45:22;100835.22;;;11.55;54.49
26697;BME280;14312;52.614;13.496;2023-03-19T05:48:08;100834.41;;;11.55;54.64
26697;BME280;14312;52.614;13.496;2023-03-19T05:50:54;100834.63;;;11.53;54.93
26697;BME280;14312;52.614;13.496;2023-03-19T05:53:41;100825.81;;;11.53;54.87
26697;BME280;14312;52.614;13.496;2023-03-19T05:56:27;100802.38;;;11.55;55.18
26697;BME280;14312;52.614;13.496;2023-03-19T05:59:13;100781.03;;;11.55;55.11
26697;BME280;14312;52.614;13.496;2023-03-19T06:02:00;100767.09;;;11.53;54.87
26697;BME280;14312;52.614;13.496;2023-03-19T06:04:46;100753.22;;;11.51;54.94
26697;BME280;14312;52.614;13.496;2023-03-19T06:07:32;100741.41;;;11.47;55.53
26697;BME280;14312;52.614;13.496;2023-03-19T06:10:18;100738.72;;;11.47;56.63
26697;BME280;14312;52.614;13.496;2023-03-19T06:13:04;100735.91;;;11.53;57.33
26697;BME280;14312;52.614;13.496;2023-03-19T06:15:50;100727.00;;;11.64;57.88
26697;BME280;14312;52.614;13.496;2023-03-19T06:18:36;100718.69;;;11.77;58.45
26697;BME280;14312;52.614;13.496;2023-03-19T06:21:23;100718.91;;;11.93;58.36
26697;BME280;14312;52.614;13.496;2023-03-19T06:24:14;100718.84;;;12.09;58.42
26697;BME280;14312;52.614;13.496;2023-03-19T06:27:00;100723.81;;;12.23;58.24
26697;BME280;14312;52.614;13.496;2023-03-19T06:29:46;100721.31;;;12.38;58.45
26697;BME280;14312;52.614;13.496;2023-03-19T06:32:32;100730.03;;;12.50;58.45
26697;BME280;14312;52.614;13.496;2023-03-19T06:35:18;100731.28;;;12.64;58.22
26697;BME280;14312;52.614;13.496;2023-03-19T06:38:03;100727.63;;;12.75;58.33
26697;BME280;14312;52.614;13.496;2023-03-19T06:40:49;100740.31;;;12.85;58.03
26697;BME280;14312;52.614;13.496;2023-03-19T06:43:35;100740.63;;;12.93;58.13
26697;BME280;14312;52.614;13.496;2023-03-19T06:46:21;100755.19;;;13.03;57.76
26697;BME280;14312;52.614;13.496;2023-03-19T06:49:07;100745.09;;;13.10;57.93
26697;BME280;14312;52.614;13.496;2023-03-19T06:51:53;100752.69;;;13.18;57.91
26697;BME280;14312;52.614;13.496;2023-03-19T06:54:40;100761.06;;;13.26;58.15
26697;BME280;14312;52.614;13.496;2023-03-19T06:57:26;100776.38;;;13.36;58.21
26697;BME280;14312;52.614;13.496;2023-03-19T07:00:12;100787.19;;;13.46;58.26
26697;BME280;14312;52.614;13.496;2023-03-19T07:02:59;100796.38;;;13.55;58.42
26697;BME280;14312;52.614;13.496;2023-03-19T07:05:48;100832.31;;;13.64;59.00
26697;BME280;14312;52.614;13.496;2023-03-19T07:08:35;100891.81;;;13.71;58.62
26697;BME280;14312;52.614;13.496;2023-03-19T07:11:21;100890.53;;;13.74;58.52
26697;BME280;14312;52.614;13.496;2023-03-19T07:14:07;100860.50;;;13.72;58.27
26697;BME280;14312;52.614;13.496;2023-03-19T07:16:53;100846.31;;;13.71;58.21
26697;BME280;14312;52.614;13.496;2023-03-19T07:19:39;100861.84;;;13.69;58.35
26697;BME280;14312;52.614;13.496;2023-03-19T07:22:25;100894.78;;;13.70;58.29
26697;BME280;14312;52.614;13.496;2023-03-19T07:25:11;100940.03;;;13.71;58.87
26697;BME280;14312;52.614;13.496;2023-03-19T07:27:57;100944.78;;;13.64;58.67
26697;BME280;14312;52.614;13.496;2023-03-19T07:30:43;100910.97;;;13.58;58.54
26697;BME280;14312;52.614;13.496;2023-03-19T07:33:29;100901.00;;;13.49;58.48
26697;BME280;14312;52.614;13.496;2023-03-19T07:36:15;100916.19;;;13.43;58.58
26697;BME280;14312;52.614;13.496;2023-03-19T07:39:01;100918.81;;;13.38;58.70
26697;BME280;14312;52.614;13.496;2023-03-19T07:41:47;100916.09;;;13.33;58.82
26697;BME280;14312;52.614;13.496;2023-03-19T07:44:33;100928.91;;;13.31;59.27
26697;BME280;14312;52.614;13.496;2023-03-19T07:47:22;100924.31;;;13.26;59.72
26697;BME280;14312;52.614;13.496;2023-03-19T07:50:09;100880.63;;;13.21;59.20
26697;BME280;14312;52.614;13.496;2023-03-19T07:52:56;100853.31;;;13.19;59.24
26697;BME280;14312;52.614;13.496;2023-03-19T07:55:42;100840.41;;;13.16;59.12
26697;BME280;14312;52.614;13.496;2023-03-19T07:58:27;100818.38;;;13.09;59.14
26697;BME280;14312;52.614;13.496;2023-03-19T08:01:13;100801.78;;;13.07;59.31
26697;BME280;14312;52.614;13.496;2023-03-19T08:04:00;100801.22;;;13.05;59.30
26697;BME280;14312;52.614;13.496;2023-03-19T08:06:46;100796.38;;;13.02;59.41
26697;BME280;14312;52.614;13.496;2023-03-19T08:09:32;100812.41;;;13.02;59.60
26697;BME280;14312;52.614;13.496;2023-03-19T08:12:19;100812.41;;;13.02;59.71
26697;BME280;14312;52.614;13.496;2023-03-19T08:15:06;100815.66;;;13.04;59.97
26697;BME280;14312;52.614;13.496;2023-03-19T08:17:59;100822.91;;;13.08;61.02
26697;BME280;14312;52.614;13.496;2023-03-19T08:20:45;100834.75;;;13.12;60.11
26697;BME280;14312;52.614;13.496;2023-03-19T08:23:31;100850.13;;;13.22;61.00
26697;BME280;14312;52.614;13.496;2023-03-19T08:26:17;100865.69;;;13.25;61.21
26697;BME280;14312;52.614;13.496;2023-03-19T08:29:03;100858.22;;;13.27;60.86
26697;BME280;14312;52.614;13.496;2023-03-19T08:31:49;100848.31;;;13.27;60.88
26697;BME280;14312;52.614;13.496;2023-03-19T08:34:37;100849.13;;;13.28;60.85
26697;BME280;14312;52.614;13.496;2023-03-19T08:37:22;100860.94;;;13.32;60.96
26697;BME280;14312;52.614;13.496;2023-03-19T08:40:09;100872.25;;;13.39;61.73
26697;BME280;14312;52.614;13.496;2023-03-19T08:42:55;100871.19;;;13.40;61.60
26697;BME280;14312;52.614;13.496;2023-03-19T08:45:41;100882.47;;;13.42;61.99
26697;BME280;14312;52.614;13.496;2023-03-19T08:48:27;100909.25;;;13.42;63.12
26697;BME280;14312;52.614;13.496;2023-03-19T08:51:13;100929.53;;;13.38;63.03
26697;BME280;14312;52.614;13.496;2023-03-19T08:53:59;100959.47;;;13.35;62.83
26697;BME280;14312;52.614;13.496;2023-03-19T08:56:45;100951.66;;;13.28;62.97
26697;BME280;14312;52.614;13.496;2023-03-19T08:59:31;100948.41;;;13.26;63.17
26697;BME280;14312;52.614;13.496;2023-03-19T09:02:18;100941.91;;;13.22;63.89
26697;BME280;14312;52.614;13.496;2023-03-19T09:05:04;100942.66;;;13.18;64.52
26697;BME280;14312;52.614;13.496;2023-03-19T09:07:50;100933.53;;;13.14;64.88
26697;BME280;14312;52.614;13.496;2023-03-19T09:10:37;100932.38;;;13.10;65.49
26697;BME280;14312;52.614;13.496;2023-03-19T09:13:24;100935.81;;;13.05;66.52
26697;BME280;14312;52.614;13.496;2023-03-19T09:16:10;100937.59;;;13.00;66.94
26697;BME280;14312;52.614;13.496;2023-03-19T09:18:56;100940.72;;;12.91;66.77
26697;BME280;14312;52.614;13.496;2023-03-19T09:21:42;100923.22;;;12.84;66.43
26697;BME280;14312;52.614;13.496;2023-03-19T09:24:29;100917.25;;;12.77;66.34
26697;BME280;14312;52.614;13.496;2023-03-19T09:27:15;100914.81;;;12.75;66.11
26697;BME280;14312;52.614;13.496;2023-03-19T09:30:02;100903.31;;;12.75;66.13
26697;BME280;14312;52.614;13.496;2023-03-19T09:32:48;100889.13;;;12.74;65.95
26697;BME280;14312;52.614;13.496;2023-03-19T09:35:34;100898.75;;;12.75;66.03
26697;BME280;14312;52.614;13.496;2023-03-19T09:38:21;100908.97;;;12.78;66.07
26697;BME280;14312;52.614;13.496;2023-03-19T09:44:04;100879.38;;;12.85;66.30
26697;BME280;14312;52.614;13.496;2023-03-19T09:50:10;100879.19;;;12.91;66.60
26697;BME280;14312;52.614;13.496;2023-03-19T09:53:17;100866.91;;;12.95;66.52
26697;BME280;14312;52.614;13.496;2023-03-19T09:56:10;100874.22;;;13.00;66.50
26697;BME280;14312;52.614;13.496;2023-03-19T09:58:58;100864.88;;;13.03;66.12
26697;BME280;14312;52.614;13.496;2023-03-19T10:01:51;100862.81;;;13.10;66.64
26697;BME280;14312;52.614;13.496;2023-03-19T10:05:07;100854.59;;;13.16;67.15
26697;BME280;14312;52.614;13.496;2023-03-19T10:08:29;100852.88;;;13.27;67.30
26697;BME280;14312;52.614;13.496;2023-03-19T10:11:36;100855.16;;;13.45;67.86
26697;BME280;14312;52.614;13.496;2023-03-19T10:17:26;100857.13;;;13.87;68.39
26697;BME280;14312;52.614;13.496;2023-03-19T10:23:41;100850.31;;;14.43;69.03
26697;BME280;14312;52.614;13.496;2023-03-19T10:26:31;100849.09;;;14.66;68.34
26697;BME280;14312;52.614;13.496;2023-03-19T10:29:22;100856.97;;;14.87;67.86
26697;BME280;14312;52.614;13.496;2023-03-19T10:35:19;100838.53;;;15.21;67.22
26697;BME280;14312;52.614;13.496;2023-03-19T10:38:17;100835.34;;;15.35;66.75
26697;BME280;14312;52.614;13.496;2023-03-19T10:41:20;100839.13;;;15.44;66.42
26697;BME280;14312;52.614;13.496;2023-03-19T10:44:18;100838.03;;;15.50;66.02
26697;BME280;14312;52.614;13.496;2023-03-19T10:47:14;100844.00;;;15.57;66.18
26697;BME280;14312;52.614;13.496;2023-03-19T10:50:02;100839.16;;;15.64;66.10
26697;BME280;14312;52.614;13.496;2023-03-19T10:53:05;100842.41;;;15.76;66.12
26697;BME280;14312;52.614;13.496;2023-03-19T10:56:00;100840.25;;;15.88;66.13
26697;BME280;14312;52.614;13.496;2023-03-19T10:59:09;100837.56;;;16.03;65.87
26697;BME280;14312;52.614;13.496;2023-03-19T11:02:21;100843.41;;;16.21;65.52
26697;BME280;14312;52.614;13.496;2023-03-19T11:08:17;100840.69;;;16.36;64.87
26697;BME280;14312;52.614;13.496;2023-03-19T11:11:04;100838.56;;;16.33;64.78
26697;BME280;14312;52.614;13.496;2023-03-19T11:13:50;100839.09;;;16.35;64.70
26697;BME280;14312;52.614;13.496;2023-03-19T11:22:56;100842.81;;;16.49;64.66
26697;BME280;14312;52.614;13.496;2023-03-19T11:25:52;100836.91;;;16.47;64.45
26697;BME280;14312;52.614;13.496;2023-03-19T11:28:41;100837.47;;;16.44;64.56
26697;BME280;14312;52.614;13.496;2023-03-19T11:31:40;100839.59;;;16.42;64.45
26697;BME280;14312;52.614;13.496;2023-03-19T11:34:55;100842.31;;;16.37;64.15
26697;BME280;14312;52.614;13.496;2023-03-19T11:37:54;100834.81;;;16.29;64.17
26697;BME280;14312;52.614;13.496;2023-03-19T11:43:39;100845.03;;;16.22;64.78
26697;BME280;14312;52.614;13.496;2023-03-19T11:49:33;100844.78;;;16.18;64.76
26697;BME280;14312;52.614;13.496;2023-03-19T11:53:11;100848.28;;;16.14;64.97
26697;BME280;14312;52.614;13.496;2023-03-19T11:58:57;100852.84;;;16.18;64.18
26697;BME280;14312;52.614;13.496;2023-03-19T12:04:58;100854.19;;;16.16;64.27
26697;BME280;14312;52.614;13.496;2023-03-19T12:08:16;100850.44;;;16.17;64.28
26697;BME280;14312;52.614;13.496;2023-03-19T12:11:17;100845.84;;;16.22;64.07
26697;BME280;14312;52.614;13.496;2023-03-19T12:20:14;100850.38;;;16.37;64.14
26697;BME280;14312;52.614;13.496;2023-03-19T12:23:11;100849.84;;;16.45;64.04
26697;BME280;14312;52.614;13.496;2023-03-19T12:26:17;100844.44;;;16.55;63.72
26697;BME280;14312;52.614;13.496;2023-03-19T12:35:50;100838.63;;;16.92;63.95
26697;BME280;14312;52.614;13.496;2023-03-19T12:38:42;100840.44;;;17.07;63.67
26697;BME280;14312;52.614;13.496;2023-03-19T12:41:31;100845.22;;;17.20;63.41
26697;BME280;14312;52.614;13.496;2023-03-19T12:44:29;100837.63;;;17.32;62.95
26697;BME280;14312;52.614;13.496;2023-03-19T12:47:21;100826.22;;;17.45;63.24
26697;BME280;14312;52.614;13.496;2023-03-19T12:50:12;100830.44;;;17.62;63.02
26697;BME280;14312;52.614;13.496;2023-03-19T12:53:01;100826.78;;;17.76;62.77
26697;BME280;14312;52.614;13.496;2023-03-19T12:55:56;100824.50;;;17.93;62.86
26697;BME280;14312;52.614;13.496;2023-03-19T12:58:58;100827.25;;;18.12;62.49
26697;BME280;14312;52.614;13.496;2023-03-19T13:02:02;100826.56;;;18.30;61.64
26697;BME280;14312;52.614;13.496;2023-03-19T13:04:54;100828.50;;;18.49;61.64
26697;BME280;14312;52.614;13.496;2023-03-19T13:07:50;100835.28;;;18.70;61.21
26697;BME280;14312;52.614;13.496;2023-03-19T13:10:39;100828.41;;;19.01;61.88
26697;BME280;14312;52.614;13.496;2023-03-19T13:13:38;100825.34;;;19.45;61.55
26697;BME280;14312;52.614;13.496;2023-03-19T13:16:45;100822.94;;;20.09;61.01
26697;BME280;14312;52.614;13.496;2023-03-19T13:19:42;100829.78;;;20.61;59.19
26697;BME280;14312;52.614;13.496;2023-03-19T13:22:33;100821.13;;;21.00;58.61
26697;BME280;14312;52.614;13.496;2023-03-19T13:25:26;100818.88;;;21.29;57.73
26697;BME280;14312;52.614;13.496;2023-03-19T13:28:25;100813.94;;;21.54;56.24
26697;BME280;14312;52.614;13.496;2023-03-19T13:31:20;100821.09;;;21.72;55.84
26697;BME280;14312;52.614;13.496;2023-03-19T13:34:23;100824.03;;;21.84;55.72
26697;BME280;14312;52.614;13.496;2023-03-19T13:37:13;100822.16;;;21.93;54.82
26697;BME280;14312;52.614;13.496;2023-03-19T13:40:03;100811.31;;;21.93;54.11
26697;BME280;14312;52.614;13.496;2023-03-19T13:42:55;100811.31;;;21.93;53.88
26697;BME280;14312;52.614;13.496;2023-03-19T13:45:42;100799.66;;;21.93;54.47
26697;BME280;14312;52.614;13.496;2023-03-19T13:54:14;100815.13;;;22.14;53.54
26697;BME280;14312;52.614;13.496;2023-03-19T13:57:04;100812.09;;;22.16;53.79
26697;BME280;14312;52.614;13.496;2023-03-19T13:59:52;100809.19;;;22.12;54.03
26697;BME280;14312;52.614;13.496;2023-03-19T14:05:24;100804.16;;;21.97;52.77
26697;BME280;14312;52.614;13.496;2023-03-19T14:08:17;100795.78;;;21.85;52.27
26697;BME280;14312;52.614;13.496;2023-03-19T14:11:04;100800.63;;;21.66;52.50
26697;BME280;14312;52.614;13.496;2023-03-19T14:13:52;100791.88;;;21.46;52.54
26697;BME280;14312;52.614;13.496;2023-03-19T14:16:43;100787.75;;;21.27;52.41
26697;BME280;14312;52.614;13.496;2023-03-19T14:19:39;100786.56;;;21.05;52.89
26697;BME280;14312;52.614;13.496;2023-03-19T14:22:36;100787.25;;;20.89;53.35
26697;BME280;14312;52.614;13.496;2023-03-19T14:25:25;100784.75;;;20.79;53.98
26697;BME280;14312;52.614;13.496;2023-03-19T14:28:17;100781.81;;;20.75;54.27
26697;BME280;14312;52.614;13.496;2023-03-19T14:31:05;100782.03;;;20.79;55.26
26697;BME280;14312;52.614;13.496;2023-03-19T14:34:05;100785.63;;;20.88;55.22
26697;BME280;14312;52.614;13.496;2023-03-19T14:37:21;100778.28;;;21.02;54.98
26697;BME280;14312;52.614;13.496;2023-03-19T14:40:14;100779.94;;;21.11;54.82
26697;BME280;14312;52.614;13.496;2023-03-19T14:43:10;100782.75;;;21.20;54.81
26697;BME280;14312;52.614;13.496;2023-03-19T14:46:00;100777.69;;;21.27;54.80
26697;BME280;14312;52.614;13.496;2023-03-19T14:55:02;100784.72;;;22.04;55.36
26697;BME280;14312;52.614;13.496;2023-03-19T14:57:55;100782.03;;;22.52;54.76
26697;BME280;14312;52.614;13.496;2023-03-19T15:00:48;100774.91;;;22.90;53.51
26697;BME280;14312;52.614;13.496;2023-03-19T15:03:35;100772.53;;;23.15;52.86
26697;BME280;14312;52.614;13.496;2023-03-19T15:06:22;100768.84;;;23.28;52.71
26697;BME280;14312;52.614;13.496;2023-03-19T15:09:19;100774.72;;;23.47;51.63
26697;BME280;14312;52.614;13.496;2023-03-19T15:15:33;100761.38;;;23.89;51.52
26697;BME280;14312;52.614;13.496;2023-03-19T15:18:24;100761.31;;;24.06;50.75
26697;BME280;14312;52.614;13.496;2023-03-19T15:21:11;100767.69;;;24.10;50.12
26697;BME280;14312;52.614;13.496;2023-03-19T15:23:57;100754.91;;;24.02;49.71
26697;BME280;14312;52.614;13.496;2023-03-19T15:26:44;100768.59;;;23.85;49.82
26697;BME280;14312;52.614;13.496;2023-03-19T15:29:31;100759.53;;;23.63;49.91
26697;BME280;14312;52.614;13.496;2023-03-19T15:32:32;100769.47;;;23.42;49.40
26697;BME280;14312;52.614;13.496;2023-03-19T15:35:18;100762.13;;;23.17;50.28
26697;BME280;14312;52.614;13.496;2023-03-19T15:38:08;100757.34;;;22.96;50.36
26697;BME280;14312;52.614;13.496;2023-03-19T15:40:55;100768.03;;;22.76;50.83
26697;BME280;14312;52.614;13.496;2023-03-19T15:43:42;100765.59;;;22.57;51.40